Terminal Aerodrome Forecast
Issued by NWS Upton, NY

Home | Current Version | Previous Version | Text Only | Print | Product List | Glossary On
Versions: 1 2 3 4 5 6 7 8 9 10 11 12 13 14 15 16 17 18 19 20 21 22 23 24 25 26 27 28 29 30 31
000
FTUS41 KOKX 231939 AAB
TAFISP
TAF AMD
KISP 231939Z 2320/2418 12010KT P6SM BKN025 BKN100
     FM240300 11010G16KT P6SM VCSH BKN025
     FM240600 10013G19KT 6SM -SHRA SCT015 OVC025
     FM240800 08013G19KT 4SM SHRA BR OVC015
     FM241000 07011KT 4SM SHRA OVC008
     FM241500 05012G18KT 6SM -SHRA OVC015=

USA.gov is the U.S. government's official web portal to all federal, state and local government web resources and services.